createdAt,value
2018-08-20T00:01:00.115Z,19.85
2018-08-20T00:03:30.435Z,19.78
2018-08-20T00:05:58.528Z,19.79
2018-08-20T00:08:26.586Z,19.72
2018-08-20T00:10:57.258Z,19.71
2018-08-20T00:13:26.052Z,19.60
2018-08-20T00:15:54.584Z,19.54
2018-08-20T00:18:27.931Z,19.47
2018-08-20T00:20:56.005Z,19.39
2018-08-20T00:23:24.672Z,19.32
2018-08-20T00:25:55.595Z,19.28
2018-08-20T00:28:23.647Z,19.15
2018-08-20T00:30:58.450Z,19.23
2018-08-20T00:33:26.566Z,19.27
2018-08-20T00:35:54.635Z,19.06
2018-08-20T00:38:22.696Z,19.25
2018-08-20T00:40:50.774Z,19.04
2018-08-20T00:43:18.872Z,19.05
2018-08-20T00:45:46.988Z,19.11
2018-08-20T00:48:15.050Z,19.17
2018-08-20T00:50:43.149Z,19.08
2018-08-20T00:53:11.225Z,19.13
2018-08-20T00:55:39.296Z,19.11
2018-08-20T00:58:07.351Z,19.09
2018-08-20T01:00:35.451Z,19.07
2018-08-20T01:03:03.521Z,19.03
2018-08-20T01:05:31.578Z,19.02
2018-08-20T01:07:59.660Z,19.01
2018-08-20T01:10:27.739Z,19.02
2018-08-20T01:12:55.804Z,18.90
2018-08-20T01:15:23.875Z,18.89
2018-08-20T01:17:51.956Z,18.87
2018-08-20T01:20:20.097Z,18.79
2018-08-20T01:22:48.179Z,18.76
2018-08-20T01:25:16.234Z,18.86
2018-08-20T01:27:49.797Z,18.84
2018-08-20T01:30:17.991Z,18.75
2018-08-20T01:32:46.076Z,18.84
2018-08-20T01:35:24.871Z,18.73
2018-08-20T01:37:52.952Z,18.65
2018-08-20T01:40:21.134Z,18.67
2018-08-20T01:42:49.199Z,18.71
2018-08-20T01:45:17.695Z,18.72
2018-08-20T01:47:45.759Z,18.74
2018-08-20T01:50:13.834Z,18.69
2018-08-20T01:52:41.933Z,18.70
2018-08-20T01:55:09.982Z,18.83
2018-08-20T01:57:38.052Z,18.84
2018-08-20T02:00:06.486Z,18.73
2018-08-20T02:02:34.548Z,18.54
2018-08-20T02:05:02.609Z,18.58
2018-08-20T02:07:30.726Z,18.47
2018-08-20T02:09:58.791Z,18.45
2018-08-20T02:12:26.871Z,18.54
2018-08-20T02:14:54.940Z,18.82
2018-08-20T02:17:23.059Z,19.15
2018-08-20T02:19:51.104Z,19.10
2018-08-20T02:22:19.240Z,19.26
2018-08-20T02:24:47.307Z,19.10
2018-08-20T02:27:15.392Z,18.92
2018-08-20T02:29:43.445Z,18.80
2018-08-20T02:32:11.512Z,18.73
2018-08-20T02:34:39.569Z,18.73
2018-08-20T02:37:07.664Z,18.69
2018-08-20T02:39:35.731Z,18.71
2018-08-20T02:42:03.808Z,18.53
2018-08-20T02:44:31.859Z,18.58
2018-08-20T02:46:59.943Z,18.56
2018-08-20T02:49:28.026Z,18.58
2018-08-20T02:51:56.103Z,18.49
2018-08-20T02:54:24.175Z,18.44
2018-08-20T02:56:52.263Z,18.44
2018-08-20T02:59:20.398Z,18.44
2018-08-20T03:01:48.518Z,18.41
2018-08-20T03:04:16.594Z,18.34
2018-08-20T03:06:44.635Z,18.39
2018-08-20T03:09:15.011Z,18.32
2018-08-20T03:11:43.065Z,18.27
2018-08-20T03:14:11.719Z,18.25
2018-08-20T03:16:39.815Z,18.20
2018-08-20T03:19:08.896Z,18.13
2018-08-20T03:21:36.968Z,18.13
2018-08-20T03:24:05.111Z,18.07
2018-08-20T03:26:33.156Z,18.20
2018-08-20T03:29:01.427Z,18.16
2018-08-20T03:31:29.745Z,18.00
2018-08-20T03:33:57.872Z,17.94
2018-08-20T03:36:26.059Z,17.81
2018-08-20T03:38:54.136Z,17.92
2018-08-20T03:41:22.208Z,17.91
2018-08-20T03:43:50.633Z,18.01
2018-08-20T03:46:18.702Z,17.75
2018-08-20T03:48:46.802Z,17.67
2018-08-20T03:51:14.869Z,17.67
2018-08-20T03:53:42.960Z,17.60
2018-08-20T03:56:11.051Z,17.67
2018-08-20T03:58:39.137Z,17.67
2018-08-20T04:01:07.204Z,17.63
2018-08-20T04:03:35.295Z,17.66
2018-08-20T04:06:03.741Z,17.68
2018-08-20T04:08:31.800Z,17.67
2018-08-20T04:11:00.039Z,17.68
2018-08-20T04:13:28.131Z,17.47
2018-08-20T04:15:56.200Z,17.45
2018-08-20T04:18:24.271Z,17.57
2018-08-20T04:20:52.360Z,17.51
2018-08-20T04:23:20.452Z,17.61
2018-08-20T04:25:48.535Z,17.55
2018-08-20T04:28:16.627Z,17.43
2018-08-20T04:30:44.751Z,17.45
2018-08-20T04:33:12.796Z,17.42
2018-08-20T04:35:40.888Z,17.36
2018-08-20T04:38:08.989Z,17.51
2018-08-20T04:40:37.114Z,17.52
2018-08-20T04:43:05.191Z,17.59
2018-08-20T04:45:33.295Z,17.63
2018-08-20T04:48:01.350Z,17.48
2018-08-20T04:50:29.633Z,17.35
2018-08-20T04:52:57.483Z,17.26
2018-08-20T04:55:25.550Z,17.22
2018-08-20T04:57:53.676Z,17.28
2018-08-20T05:00:21.779Z,17.36
2018-08-20T05:02:49.851Z,17.41
2018-08-20T05:05:17.924Z,17.50
2018-08-20T05:07:46.018Z,17.48
2018-08-20T05:10:14.085Z,17.50
2018-08-20T05:12:42.143Z,17.42
2018-08-20T05:15:10.225Z,17.45
2018-08-20T05:17:38.302Z,17.43
2018-08-20T05:20:07.027Z,17.46
2018-08-20T05:22:35.148Z,17.50
2018-08-20T05:25:03.201Z,17.57
2018-08-20T05:27:31.273Z,17.65
2018-08-20T05:29:59.346Z,17.70
2018-08-20T05:32:27.404Z,17.78
2018-08-20T05:34:55.487Z,17.80
2018-08-20T05:37:23.552Z,17.87
2018-08-20T05:39:51.684Z,17.93
2018-08-20T05:42:19.744Z,18.05
2018-08-20T05:44:47.818Z,18.17
2018-08-20T05:47:15.932Z,18.26
2018-08-20T05:49:43.995Z,18.36
2018-08-20T05:52:12.067Z,18.50
2018-08-20T05:54:40.128Z,18.66
2018-08-20T05:57:08.360Z,18.86
2018-08-20T05:59:36.439Z,19.00
2018-08-20T06:02:04.526Z,19.06
2018-08-20T06:04:32.600Z,19.16
2018-08-20T06:07:00.656Z,19.26
2018-08-20T06:09:28.736Z,19.39
2018-08-20T06:11:56.783Z,19.54
2018-08-20T06:14:24.873Z,19.67
2018-08-20T06:16:52.958Z,19.86
2018-08-20T06:19:21.051Z,20.04
2018-08-20T06:21:49.124Z,20.19
2018-08-20T06:24:17.247Z,20.34
2018-08-20T06:26:45.332Z,20.42
2018-08-20T06:29:13.444Z,20.45
2018-08-20T06:31:41.508Z,20.58
2018-08-20T06:34:09.626Z,20.66
2018-08-20T06:36:37.695Z,20.62
2018-08-20T06:39:07.523Z,20.72
2018-08-20T06:41:35.614Z,20.87
2018-08-20T06:44:03.787Z,20.98
2018-08-20T06:46:31.851Z,21.04
2018-08-20T06:48:59.943Z,21.18
2018-08-20T06:51:28.014Z,21.26
2018-08-20T06:53:56.245Z,21.32
2018-08-20T06:56:24.314Z,21.61
2018-08-20T06:58:52.379Z,21.77
2018-08-20T07:01:20.443Z,22.03
2018-08-20T07:03:48.528Z,22.30
2018-08-20T07:06:16.649Z,22.49
2018-08-20T07:08:44.694Z,22.57
2018-08-20T07:11:12.790Z,22.70
2018-08-20T07:13:40.853Z,22.97
2018-08-20T07:16:09.243Z,23.16
2018-08-20T07:18:37.311Z,23.36
2018-08-20T07:21:05.396Z,23.51
2018-08-20T07:23:33.593Z,23.70
2018-08-20T07:26:01.565Z,23.89
2018-08-20T07:28:29.660Z,23.99
2018-08-20T07:30:57.878Z,24.24
2018-08-20T07:33:25.997Z,24.32
2018-08-20T07:35:54.116Z,24.53
2018-08-20T07:38:22.224Z,24.55
2018-08-20T07:40:50.400Z,24.75
2018-08-20T07:43:18.487Z,24.62
2018-08-20T07:45:46.611Z,24.52
2018-08-20T07:48:14.842Z,24.59
2018-08-20T07:50:42.971Z,24.68
2018-08-20T07:53:11.034Z,24.83
2018-08-20T07:55:39.157Z,25.05
2018-08-20T07:58:07.552Z,24.59
2018-08-20T08:00:35.644Z,24.70
2018-08-20T08:03:03.774Z,24.93
2018-08-20T08:05:31.856Z,25.00
2018-08-20T08:07:59.915Z,25.15
2018-08-20T08:10:28.100Z,25.13
2018-08-20T08:12:56.256Z,25.35
2018-08-20T08:15:24.336Z,25.46
2018-08-20T08:17:52.483Z,25.49
2018-08-20T08:20:20.485Z,25.64
2018-08-20T08:22:48.559Z,25.52
2018-08-20T08:25:16.667Z,25.20
2018-08-20T08:27:44.771Z,25.19
2018-08-20T08:30:18.047Z,25.29
2018-08-20T08:32:46.515Z,25.46
2018-08-20T08:35:14.918Z,25.29
2018-08-20T08:37:43.159Z,25.27
2018-08-20T08:40:12.896Z,25.44
2018-08-20T08:42:40.968Z,25.58
2018-08-20T08:45:12.391Z,25.63
2018-08-20T08:47:40.755Z,25.82
2018-08-20T08:50:08.957Z,25.72
2018-08-20T08:52:37.117Z,25.74
2018-08-20T08:55:05.958Z,25.77
2018-08-20T08:57:34.083Z,25.69
2018-08-20T09:00:02.236Z,25.60
2018-08-20T09:02:30.348Z,25.38
2018-08-20T09:04:58.436Z,25.20
2018-08-20T09:07:26.541Z,25.32
2018-08-20T09:09:54.651Z,25.27
2018-08-20T09:12:22.751Z,25.15
2018-08-20T09:14:50.867Z,25.21
2018-08-20T09:17:18.983Z,25.20
2018-08-20T09:19:47.724Z,25.31
2018-08-20T09:22:15.925Z,25.39
2018-08-20T09:24:44.154Z,25.46
2018-08-20T09:27:12.353Z,25.29
2018-08-20T09:29:40.560Z,25.26
2018-08-20T09:32:08.835Z,25.21
2018-08-20T09:34:36.971Z,25.06
2018-08-20T09:37:05.095Z,25.06
2018-08-20T09:39:33.284Z,25.26
2018-08-20T09:42:01.408Z,25.43
2018-08-20T09:44:29.630Z,25.58
2018-08-20T09:46:57.783Z,25.64
2018-08-20T09:49:25.903Z,25.58
2018-08-20T09:51:54.132Z,25.64
2018-08-20T09:54:22.380Z,25.54
2018-08-20T09:56:50.680Z,25.49
2018-08-20T09:59:18.871Z,25.73
2018-08-20T10:01:47.088Z,25.92
2018-08-20T10:07:17.766Z,26.16
2018-08-20T10:09:45.974Z,26.13
2018-08-20T10:12:14.131Z,26.13
2018-08-20T10:14:42.262Z,26.36
2018-08-20T10:17:10.364Z,26.58
2018-08-20T10:19:39.463Z,26.40
2018-08-20T10:22:07.591Z,26.34
2018-08-20T10:24:35.819Z,26.26
2018-08-20T10:27:03.879Z,26.48
2018-08-20T10:29:31.979Z,26.71
2018-08-20T10:32:00.089Z,26.96
2018-08-20T10:34:28.136Z,26.92
2018-08-20T10:36:56.223Z,27.01
2018-08-20T10:39:24.305Z,26.92
2018-08-20T10:41:52.394Z,26.90
2018-08-20T10:44:20.443Z,26.86
2018-08-20T10:46:48.529Z,26.92
2018-08-20T10:49:17.192Z,26.86
2018-08-20T10:51:45.259Z,26.82
2018-08-20T10:54:13.440Z,26.77
2018-08-20T10:56:42.449Z,26.82
2018-08-20T10:59:10.552Z,26.92
2018-08-20T11:01:38.980Z,26.75
2018-08-20T11:04:07.464Z,26.79
2018-08-20T11:06:35.531Z,26.82
2018-08-20T11:09:03.783Z,26.89
2018-08-20T11:11:38.209Z,26.98
2018-08-20T11:14:09.703Z,26.99
2018-08-20T11:16:41.526Z,26.87
2018-08-20T11:19:10.649Z,26.91
2018-08-20T11:21:38.741Z,26.89
2018-08-20T11:24:06.832Z,26.77
2018-08-20T11:26:34.916Z,27.00
2018-08-20T11:29:03.059Z,27.25
2018-08-20T11:31:31.176Z,27.42
2018-08-20T11:33:59.258Z,27.51
2018-08-20T11:36:27.370Z,27.29
2018-08-20T11:38:55.443Z,27.36
2018-08-20T11:41:23.528Z,27.38
2018-08-20T11:43:51.611Z,27.22
2018-08-20T11:46:19.671Z,27.30
2018-08-20T11:48:47.748Z,27.19
2018-08-20T11:51:15.802Z,27.40
2018-08-20T11:53:44.185Z,27.41
2018-08-20T11:56:12.253Z,27.35
2018-08-20T11:58:40.341Z,27.40
2018-08-20T12:01:08.584Z,27.55
2018-08-20T12:03:36.649Z,27.64
2018-08-20T12:06:09.235Z,27.77
2018-08-20T12:08:37.309Z,28.03
2018-08-20T12:11:05.920Z,28.16
2018-08-20T12:13:34.025Z,28.19
2018-08-20T12:16:02.127Z,28.31
2018-08-20T12:18:34.087Z,28.59
2018-08-20T12:21:02.192Z,28.87
2018-08-20T12:23:30.631Z,29.14
2018-08-20T12:25:58.804Z,29.27
2018-08-20T12:28:26.891Z,29.25
2018-08-20T12:30:55.007Z,28.81
2018-08-20T12:33:23.119Z,28.92
2018-08-20T12:35:51.235Z,28.62
2018-08-20T12:38:19.344Z,28.78
2018-08-20T12:40:47.451Z,28.92
2018-08-20T12:43:15.549Z,28.95
2018-08-20T12:45:43.594Z,29.03
2018-08-20T12:48:11.648Z,29.37
2018-08-20T12:50:39.750Z,29.43
2018-08-20T12:53:07.944Z,28.81
2018-08-20T12:55:36.051Z,28.79
2018-08-20T12:58:04.132Z,29.02
2018-08-20T13:00:32.247Z,29.26
2018-08-20T13:03:00.274Z,29.22
2018-08-20T13:05:28.349Z,29.23
2018-08-20T13:08:03.040Z,29.46
2018-08-20T13:10:31.105Z,29.54
2018-08-20T13:12:59.164Z,29.25
2018-08-20T13:15:27.231Z,29.23
2018-08-20T13:17:55.300Z,28.89
2018-08-20T13:20:23.383Z,28.97
2018-08-20T13:22:51.449Z,29.11
2018-08-20T13:25:19.518Z,29.18
2018-08-20T13:27:47.580Z,29.28
2018-08-20T13:30:15.648Z,29.30
2018-08-20T13:32:43.729Z,29.32
2018-08-20T13:35:11.807Z,29.29
2018-08-20T13:37:39.919Z,29.38
2018-08-20T13:40:07.985Z,29.46
2018-08-20T13:42:36.047Z,29.45
2018-08-20T13:45:04.293Z,29.63
2018-08-20T13:47:32.384Z,29.49
2018-08-20T13:50:05.859Z,29.50
2018-08-20T13:52:34.641Z,29.61
2018-08-20T13:55:02.900Z,29.67
2018-08-20T13:57:35.273Z,29.61
2018-08-20T14:00:03.528Z,29.50
2018-08-20T14:02:31.727Z,29.61
2018-08-20T14:04:59.932Z,29.18
2018-08-20T14:07:28.120Z,29.11
2018-08-20T14:09:56.324Z,29.20
2018-08-20T14:12:25.016Z,29.17
2018-08-20T14:14:53.224Z,29.10
2018-08-20T14:17:21.420Z,29.18
2018-08-20T14:19:49.657Z,29.44
2018-08-20T14:22:17.827Z,29.43
2018-08-20T14:24:46.083Z,29.25
2018-08-20T14:27:14.318Z,29.27
2018-08-20T14:29:42.539Z,29.22
2018-08-20T14:32:13.752Z,29.14
2018-08-20T14:34:41.945Z,29.22
2018-08-20T14:37:10.130Z,29.35
2018-08-20T14:39:38.429Z,29.43
2018-08-20T14:42:06.963Z,29.45
2018-08-20T14:44:35.150Z,29.57
2018-08-20T14:47:03.873Z,29.62
2018-08-20T14:49:54.184Z,29.59
2018-08-20T14:52:23.957Z,29.56
2018-08-20T14:54:57.027Z,29.54
2018-08-20T14:57:25.215Z,29.48
2018-08-20T14:59:53.973Z,29.49
2018-08-20T15:02:39.164Z,29.14
2018-08-20T15:05:08.905Z,29.28
2018-08-20T15:07:37.823Z,29.51
2018-08-20T15:10:23.393Z,29.41
2018-08-20T15:12:56.964Z,29.34
2018-08-20T15:15:26.250Z,29.42
2018-08-20T15:21:14.283Z,29.29
2018-08-20T15:26:44.295Z,29.00
2018-08-20T15:32:08.251Z,29.09
2018-08-20T15:40:21.576Z,28.72
2018-08-20T15:42:49.788Z,28.98
2018-08-20T15:45:18.007Z,28.86
2018-08-20T15:47:46.184Z,28.92
2018-08-20T15:50:14.364Z,28.97
2018-08-20T15:52:42.544Z,28.98
2018-08-20T15:55:10.753Z,29.06
2018-08-20T15:57:38.959Z,29.11
2018-08-20T16:00:08.408Z,28.97
2018-08-20T16:02:36.592Z,28.97
2018-08-20T16:05:04.680Z,29.03
2018-08-20T16:07:32.748Z,29.07
2018-08-20T16:10:00.819Z,29.08
2018-08-20T16:12:28.881Z,29.05
2018-08-20T16:14:56.967Z,29.14
2018-08-20T16:17:25.042Z,29.24
2018-08-20T16:19:53.117Z,29.37
2018-08-20T16:22:21.170Z,29.20
2018-08-20T16:24:49.276Z,29.29
2018-08-20T16:27:17.380Z,29.26
2018-08-20T16:29:45.436Z,28.97
2018-08-20T16:32:13.533Z,29.12
2018-08-20T16:34:41.600Z,29.13
2018-08-20T16:37:09.656Z,29.17
2018-08-20T16:39:37.963Z,29.14
2018-08-20T16:42:06.065Z,28.99
2018-08-20T16:44:34.218Z,29.04
2018-08-20T16:47:02.353Z,28.91
2018-08-20T16:49:30.513Z,28.78
2018-08-20T16:51:58.599Z,28.66
2018-08-20T16:54:26.678Z,28.57
2018-08-20T16:56:54.768Z,28.35
2018-08-20T16:59:22.877Z,28.32
2018-08-20T17:01:50.942Z,28.50
2018-08-20T17:04:30.972Z,28.46
2018-08-20T17:07:01.283Z,28.49
2018-08-20T17:09:29.887Z,28.34
2018-08-20T17:11:57.987Z,28.28
2018-08-20T17:14:26.067Z,28.24
2018-08-20T17:16:54.320Z,28.25
2018-08-20T17:19:22.459Z,28.25
2018-08-20T17:21:50.540Z,28.02
2018-08-20T17:24:26.924Z,28.15
2018-08-20T17:26:56.511Z,28.14
2018-08-20T17:29:24.624Z,28.11
2018-08-20T17:31:52.716Z,28.10
2018-08-20T17:34:20.804Z,28.08
2018-08-20T17:36:48.863Z,27.97
2018-08-20T17:39:17.156Z,28.03
2018-08-20T17:41:47.017Z,27.98
2018-08-20T17:44:15.497Z,27.84
2018-08-20T17:46:43.628Z,27.70
2018-08-20T17:49:13.119Z,27.72
2018-08-20T17:51:41.691Z,27.56
2018-08-20T17:54:10.073Z,27.42
2018-08-20T17:56:38.280Z,27.43
2018-08-20T17:59:11.334Z,27.33
2018-08-20T18:01:47.724Z,27.19
2018-08-20T18:04:19.892Z,27.07
2018-08-20T18:06:52.376Z,27.00
2018-08-20T18:09:20.589Z,26.87
2018-08-20T18:11:57.848Z,26.85
2018-08-20T18:14:26.933Z,26.76
2018-08-20T18:16:55.109Z,26.61
2018-08-20T18:19:23.271Z,26.59
2018-08-20T18:21:51.411Z,26.46
2018-08-20T18:24:21.036Z,26.49
2018-08-20T18:26:53.397Z,26.42
2018-08-20T18:29:27.383Z,26.37
2018-08-20T18:31:58.204Z,26.32
2018-08-20T18:34:27.462Z,26.21
2018-08-20T18:36:55.681Z,26.22
2018-08-20T18:39:24.677Z,26.27
2018-08-20T18:41:59.322Z,26.14
2018-08-20T18:44:27.577Z,26.07
2018-08-20T18:46:56.816Z,26.03
2018-08-20T18:49:25.036Z,25.90
2018-08-20T18:52:01.649Z,25.85
2018-08-20T18:54:34.467Z,25.79
2018-08-20T18:57:07.904Z,25.84
2018-08-20T18:59:37.283Z,25.85
2018-08-20T19:02:05.874Z,25.87
2018-08-20T19:04:40.511Z,25.69
2018-08-20T19:07:13.335Z,25.58
2018-08-20T19:09:46.373Z,25.60
2018-08-20T19:12:15.258Z,25.59
2018-08-20T19:14:43.353Z,25.64
2018-08-20T19:17:16.803Z,25.56
2018-08-20T19:19:47.640Z,25.61
2018-08-20T19:22:21.172Z,25.53
2018-08-20T19:24:50.191Z,25.52
2018-08-20T19:27:18.735Z,25.54
2018-08-20T19:29:47.120Z,25.46
2018-08-20T19:32:15.362Z,25.52
2018-08-20T19:34:44.333Z,25.48
2018-08-20T19:37:13.375Z,25.57
2018-08-20T19:39:52.912Z,25.49
2018-08-20T19:42:28.826Z,25.47
2018-08-20T19:44:57.166Z,25.33
2018-08-20T19:47:25.363Z,25.19
2018-08-20T19:49:56.023Z,25.24
2018-08-20T19:52:24.293Z,25.39
2018-08-20T19:55:00.348Z,25.40
2018-08-20T19:57:28.563Z,25.39
2018-08-20T19:59:56.840Z,25.29
2018-08-20T20:02:30.821Z,25.26
2018-08-20T20:05:04.260Z,25.06
2018-08-20T20:07:33.989Z,24.98
2018-08-20T20:10:07.300Z,24.91
2018-08-20T20:12:40.694Z,24.92
2018-08-20T20:15:09.411Z,24.88
2018-08-20T20:17:38.380Z,25.10
2018-08-20T20:20:11.061Z,25.14
2018-08-20T20:23:00.620Z,25.25
2018-08-20T20:25:28.823Z,25.17
2018-08-20T20:27:58.681Z,25.24
2018-08-20T20:30:27.701Z,25.14
2018-08-20T20:32:56.468Z,25.17
2018-08-20T20:35:24.623Z,25.13
2018-08-20T20:37:52.845Z,25.29
2018-08-20T20:40:21.625Z,25.12
2018-08-20T20:42:50.628Z,25.26
2018-08-20T20:45:19.809Z,25.08
2018-08-20T20:47:48.473Z,25.10
2018-08-20T20:50:17.565Z,24.99
2018-08-20T20:52:46.700Z,25.02
2018-08-20T20:55:17.815Z,24.99
2018-08-20T20:57:45.997Z,25.07
2018-08-20T21:00:14.657Z,25.04
2018-08-20T21:02:46.658Z,24.84
2018-08-20T21:05:15.308Z,24.83
2018-08-20T21:07:47.977Z,24.83
2018-08-20T21:10:21.260Z,24.86
2018-08-20T21:12:49.689Z,24.94
2018-08-20T21:15:25.685Z,24.93
2018-08-20T21:17:57.362Z,24.90
2018-08-20T21:20:27.169Z,25.00
2018-08-20T21:23:06.861Z,24.96
2018-08-20T21:25:37.723Z,24.98
2018-08-20T21:28:09.004Z,25.04
2018-08-20T21:30:42.636Z,24.86
2018-08-20T21:33:11.906Z,24.85
2018-08-20T21:35:41.657Z,24.71
2018-08-20T21:38:09.821Z,24.77
2018-08-20T21:40:38.479Z,24.79
2018-08-20T21:43:11.683Z,24.79
2018-08-20T21:45:40.630Z,24.85
2018-08-20T21:48:08.872Z,24.68
2018-08-20T21:50:37.985Z,24.71
2018-08-20T21:53:06.170Z,24.50
2018-08-20T21:55:34.656Z,24.54
2018-08-20T21:58:02.777Z,24.55
2018-08-20T22:00:31.012Z,24.58
2018-08-20T22:03:02.331Z,24.60
2018-08-20T22:05:30.778Z,24.46
2018-08-20T22:07:59.969Z,24.40
2018-08-20T22:10:30.321Z,24.42
2018-08-20T22:12:58.841Z,24.42
2018-08-20T22:15:26.909Z,24.43
2018-08-20T22:17:55.015Z,24.44
2018-08-20T22:20:23.212Z,24.37
2018-08-20T22:22:51.275Z,24.34
2018-08-20T22:25:19.342Z,24.25
2018-08-20T22:27:52.703Z,24.20
2018-08-20T22:30:20.775Z,24.23
2018-08-20T22:32:48.843Z,24.27
2018-08-20T22:35:22.184Z,24.26
2018-08-20T22:37:51.148Z,24.21
2018-08-20T22:40:19.759Z,24.17
2018-08-20T22:42:50.229Z,24.24
2018-08-20T22:45:19.465Z,24.24
2018-08-20T22:47:48.384Z,24.22
2018-08-20T22:50:16.500Z,24.19
2018-08-20T22:52:45.913Z,24.15
2018-08-20T22:55:15.520Z,24.19
2018-08-20T22:57:49.954Z,24.14
2018-08-20T23:00:24.173Z,24.13
2018-08-20T23:02:53.552Z,24.12
2018-08-20T23:05:21.626Z,24.05
2018-08-20T23:07:49.767Z,24.04
2018-08-20T23:10:17.837Z,24.18
2018-08-20T23:12:45.906Z,24.04
2018-08-20T23:15:14.442Z,24.09
2018-08-20T23:17:42.563Z,24.07
2018-08-20T23:20:17.587Z,23.95
2018-08-20T23:22:45.820Z,24.12
2018-08-20T23:25:14.043Z,24.01
2018-08-20T23:27:42.267Z,23.89
2018-08-20T23:30:11.415Z,24.01
2018-08-20T23:32:39.591Z,24.05
2018-08-20T23:35:07.692Z,23.99
2018-08-20T23:37:35.995Z,24.05
2018-08-20T23:40:04.735Z,23.91
2018-08-20T23:42:32.808Z,23.83
2018-08-20T23:45:00.877Z,23.69
2018-08-20T23:47:28.956Z,23.80
2018-08-20T23:49:57.088Z,23.89
2018-08-20T23:52:25.146Z,23.93
2018-08-20T23:54:53.224Z,23.89
2018-08-20T23:57:21.296Z,23.90
2018-08-20T23:59:49.387Z,23.87
